createdAt,value
2022-12-25T00:00:53.665Z,57.63
2022-12-25T00:01:55.764Z,48.33
2022-12-25T00:02:58.499Z,45.53
2022-12-25T00:04:00.760Z,57.08
2022-12-25T00:05:03.704Z,53.03
2022-12-25T00:06:06.511Z,50.20
2022-12-25T00:07:08.560Z,48.25
2022-12-25T00:08:11.120Z,47.87
2022-12-25T00:09:13.140Z,57.35
2022-12-25T00:10:15.158Z,54.72
2022-12-25T00:11:19.966Z,50.58
2022-12-25T00:12:22.531Z,52.88
2022-12-25T00:13:24.690Z,48.42
2022-12-25T00:14:26.698Z,47.65
2022-12-25T00:15:28.817Z,46.30
2022-12-25T00:16:30.974Z,46.03
2022-12-25T00:17:33.829Z,51.17
2022-12-25T00:18:36.196Z,52.10
2022-12-25T00:19:38.246Z,47.88
2022-12-25T00:20:40.297Z,50.63
2022-12-25T00:21:42.391Z,48.75
2022-12-25T00:22:44.428Z,53.65
2022-12-25T00:23:47.116Z,47.83
2022-12-25T00:24:49.515Z,51.13
2022-12-25T00:25:52.901Z,69.63
2022-12-25T00:26:54.952Z,76.32
2022-12-25T00:27:57.703Z,72.95
2022-12-25T00:28:59.824Z,74.90
2022-12-25T00:30:07.905Z,64.78
2022-12-25T00:31:18.261Z,59.50
2022-12-25T00:32:20.326Z,58.08
2022-12-25T00:33:22.356Z,55.97
2022-12-25T00:34:24.364Z,46.42
2022-12-25T00:35:26.339Z,45.80
2022-12-25T00:36:28.335Z,48.25
2022-12-25T00:37:30.441Z,52.38
2022-12-25T00:38:33.965Z,48.40
2022-12-25T00:39:36.031Z,50.57
2022-12-25T00:40:45.186Z,48.28
2022-12-25T00:42:09.833Z,48.47
2022-12-25T00:43:12.152Z,51.10
2022-12-25T00:44:14.239Z,44.70
2022-12-25T00:45:17.472Z,42.88
2022-12-25T00:46:19.599Z,43.80
2022-12-25T00:47:21.912Z,36.38
2022-12-25T00:48:24.308Z,37.63
2022-12-25T00:49:26.392Z,41.40
2022-12-25T00:50:28.402Z,47.90
2022-12-25T00:51:30.590Z,36.83
2022-12-25T00:52:33.210Z,41.22
2022-12-25T00:53:35.300Z,40.67
2022-12-25T00:54:38.560Z,48.88
2022-12-25T00:55:40.538Z,52.50
2022-12-25T00:56:42.543Z,38.08
2022-12-25T00:57:44.529Z,37.47
2022-12-25T00:58:50.825Z,45.17
2022-12-25T00:59:52.814Z,48.65
2022-12-25T01:00:54.999Z,46.70
2022-12-25T01:02:17.088Z,42.97
2022-12-25T01:03:19.544Z,49.08
2022-12-25T01:04:21.532Z,48.20
2022-12-25T01:05:23.537Z,46.35
2022-12-25T01:06:25.924Z,46.33
2022-12-25T01:07:28.216Z,41.90
2022-12-25T01:08:33.253Z,45.22
2022-12-25T01:09:53.977Z,48.90
2022-12-25T01:10:58.238Z,44.72
2022-12-25T01:12:00.363Z,41.13
2022-12-25T01:13:02.610Z,49.72
2022-12-25T01:14:05.038Z,45.97
2022-12-25T01:15:09.532Z,47.33
2022-12-25T01:16:12.280Z,41.10
2022-12-25T01:17:15.144Z,40.10
2022-12-25T01:18:17.326Z,42.00
2022-12-25T01:19:21.385Z,38.55
2022-12-25T01:20:23.390Z,39.33
2022-12-25T01:21:25.631Z,32.92
2022-12-25T01:22:27.818Z,34.93
2022-12-25T01:23:30.017Z,34.53
2022-12-25T01:24:31.995Z,36.83
2022-12-25T01:25:34.202Z,36.70
2022-12-25T01:26:38.792Z,37.97
2022-12-25T01:27:41.856Z,39.42
2022-12-25T01:28:43.884Z,42.42
2022-12-25T01:29:47.008Z,44.45
2022-12-25T01:30:49.726Z,37.78
2022-12-25T01:31:51.699Z,48.55
2022-12-25T01:32:53.664Z,40.10
2022-12-25T01:33:55.888Z,39.15
2022-12-25T01:34:57.896Z,37.95
2022-12-25T01:36:01.410Z,41.65
2022-12-25T01:37:03.695Z,33.65
2022-12-25T01:38:05.683Z,37.85
2022-12-25T01:39:07.800Z,36.80
2022-12-25T01:40:10.571Z,38.33
2022-12-25T01:41:14.963Z,38.85
2022-12-25T01:42:18.992Z,36.50
2022-12-25T01:43:28.596Z,37.97
2022-12-25T01:44:36.402Z,38.20
2022-12-25T01:45:43.821Z,36.38
2022-12-25T01:46:46.598Z,40.40
2022-12-25T01:47:49.148Z,39.53
2022-12-25T01:48:53.864Z,38.85
2022-12-25T01:49:55.934Z,43.03
2022-12-25T01:51:20.315Z,43.65
2022-12-25T01:52:25.199Z,37.63
2022-12-25T01:53:27.551Z,44.28
2022-12-25T01:54:34.588Z,41.93
2022-12-25T01:55:38.267Z,37.38
2022-12-25T01:56:41.601Z,34.97
2022-12-25T01:57:44.491Z,38.63
2022-12-25T01:58:47.329Z,33.47
2022-12-25T01:59:49.968Z,40.38
2022-12-25T02:00:52.826Z,42.70
2022-12-25T02:01:58.239Z,44.60
2022-12-25T02:03:00.912Z,39.97
2022-12-25T02:04:41.666Z,41.63
2022-12-25T02:05:45.854Z,38.20
2022-12-25T02:06:51.605Z,38.55
2022-12-25T02:07:54.839Z,37.78
2022-12-25T02:08:59.271Z,30.45
2022-12-25T02:10:01.459Z,29.17
2022-12-25T02:11:03.772Z,30.92
2022-12-25T02:12:08.038Z,29.48
2022-12-25T02:13:10.269Z,29.20
2022-12-25T02:14:12.521Z,32.70
2022-12-25T02:15:17.843Z,26.20
2022-12-25T02:16:22.909Z,28.77
2022-12-25T02:17:37.238Z,28.20
2022-12-25T02:18:43.846Z,29.45
2022-12-25T02:20:11.904Z,29.40
2022-12-25T02:21:51.984Z,31.55
2022-12-25T02:23:31.132Z,33.88
2022-12-25T02:25:02.770Z,40.53
2022-12-25T02:26:14.983Z,34.72
2022-12-25T02:27:55.552Z,34.13
2022-12-25T02:29:17.939Z,38.45
2022-12-25T02:30:20.176Z,38.43
2022-12-25T02:31:29.274Z,36.88
2022-12-25T02:32:37.497Z,33.00
2022-12-25T02:34:07.887Z,37.38
2022-12-25T02:35:23.873Z,34.25
2022-12-25T02:36:32.702Z,33.65
2022-12-25T02:37:41.252Z,33.33
2022-12-25T02:39:05.504Z,27.27
2022-12-25T02:40:19.626Z,27.85
2022-12-25T02:41:22.237Z,26.42
2022-12-25T02:43:13.231Z,30.47
2022-12-25T02:44:39.210Z,27.27
2022-12-25T02:46:06.071Z,23.15
2022-12-25T02:47:45.443Z,23.98
2022-12-25T02:49:14.286Z,25.83
2022-12-25T02:50:35.981Z,26.15
2022-12-25T02:52:00.868Z,28.42
2022-12-25T02:53:24.168Z,26.75
2022-12-25T02:54:52.718Z,29.15
2022-12-25T02:56:15.283Z,27.73
2022-12-25T02:57:39.320Z,29.83
2022-12-25T02:59:01.177Z,28.55
2022-12-25T03:00:24.995Z,30.27
2022-12-25T03:01:48.681Z,27.67
2022-12-25T03:03:11.368Z,30.63
2022-12-25T03:04:37.539Z,31.15
2022-12-25T03:06:00.168Z,31.85
2022-12-25T03:07:07.685Z,30.63
2022-12-25T03:08:21.223Z,28.42
2022-12-25T03:09:46.003Z,32.22
2022-12-25T03:11:18.627Z,38.63
2022-12-25T03:12:23.765Z,37.58
2022-12-25T03:13:33.593Z,37.20
2022-12-25T03:14:55.934Z,37.30
2022-12-25T03:16:16.904Z,36.42
2022-12-25T03:17:19.048Z,31.23
2022-12-25T03:18:24.621Z,34.35
2022-12-25T03:19:50.637Z,32.03
2022-12-25T03:21:12.772Z,32.45
